Time;durP1;ratioP1;P1;durP2;ratioP2;P2;SDS_P1;SDS_P2;PMS_P1;PMS_P2;Temp;Humidity;BMP_temperature;BMP_pressure;BME280_temperature;BME280_humidity;BME280_pressure;Samples;Min_cycle;Max_cycle;Signal;HPM_P1;HPM_P2
2023/11/02 00:00:35;;;;;;;;;;;15.50;99.90;;;;;;5057347;28;19920;-80
2023/11/02 00:03:02;;;;;;;;;;;15.50;99.90;;;;;;5060282;28;19928;-78
2023/11/02 00:05:39;;;;;;;;;;;15.40;99.90;;;;;;5058450;28;20372;-78
2023/11/02 00:08:06;;;;;;;;;;;15.50;99.90;;;;;;5053587;28;20352;-79
2023/11/02 00:10:34;;;;;;;;;;;15.50;99.90;;;;;;5055446;28;19924;-79
2023/11/02 00:13:05;;;;;;;;;;;15.40;99.90;;;;;;5059828;28;20007;-78
2023/11/02 00:15:34;;;;;;;;;;;15.30;99.90;;;;;;5058288;28;20395;-80
2023/11/02 00:18:01;;;;;;;;;;;15.20;99.90;;;;;;5074318;28;20299;-80
2023/11/02 00:20:30;;;;;;;;;;;15.20;99.90;;;;;;5075057;28;19961;-79
2023/11/02 00:22:57;;;;;;;;;;;15.20;99.90;;;;;;5056424;28;19925;-80
2023/11/02 00:25:43;;;;;;;;;;;15.20;99.90;;;;;;5056916;28;19963;-77
2023/11/02 00:28:10;;;;;;;;;;;15.40;99.90;;;;;;5074171;28;19926;-77
2023/11/02 00:30:39;;;;;;;;;;;15.40;99.90;;;;;;5032909;28;19943;-77
2023/11/02 00:33:07;;;;;;;;;;;15.50;99.90;;;;;;5059316;28;19921;-76
2023/11/02 00:35:34;;;;;;;;;;;15.50;99.90;;;;;;5060160;28;19924;-78
2023/11/02 00:38:02;;;;;;;;;;;15.50;99.90;;;;;;5074931;28;19952;-74
2023/11/02 00:40:30;;;;;;;;;;;15.40;99.90;;;;;;5058412;28;19920;-77
2023/11/02 00:42:59;;;;;;;;;;;15.50;99.90;;;;;;5042790;28;19960;-76
2023/11/02 00:45:27;;;;;;;;;;;15.40;99.90;;;;;;5056029;28;20309;-77
2023/11/02 00:47:54;;;;;;;;;;;15.30;99.90;;;;;;5061425;28;19921;-77
2023/11/02 00:50:42;;;;;;;;;;;15.10;99.90;;;;;;5059842;28;19927;-77
2023/11/02 00:53:11;;;;;;;;;;;15.10;99.90;;;;;;5059198;28;19975;-79
2023/11/02 00:55:38;;;;;;;;;;;15.20;99.90;;;;;;5047983;28;19967;-78
2023/11/02 00:58:11;;;;;;;;;;;15.20;99.90;;;;;;5073947;28;19925;-79
2023/11/02 01:00:53;;;;;;;;;;;15.30;99.90;;;;;;5028033;28;19978;-79
2023/11/02 01:03:21;;;;;;;;;;;15.40;99.90;;;;;;5039938;28;19963;-77
2023/11/02 01:05:51;;;;;;;;;;;15.50;99.90;;;;;;5059945;28;19998;-78
2023/11/02 01:08:22;;;;;;;;;;;15.40;99.90;;;;;;5056799;28;19924;-80
2023/11/02 01:10:49;;;;;;;;;;;15.40;99.90;;;;;;5059650;28;19921;-77
2023/11/02 01:13:18;;;;;;;;;;;15.40;99.90;;;;;;5042598;28;19931;-77
2023/11/02 01:16:07;;;;;;;;;;;15.20;99.90;;;;;;5026208;28;19927;-77
2023/11/02 01:18:34;;;;;;;;;;;15.20;99.90;;;;;;5059011;28;19924;-77
2023/11/02 01:21:03;;;;;;;;;;;15.10;99.90;;;;;;5043301;28;19931;-77
2023/11/02 01:23:32;;;;;;;;;;;14.30;99.90;;;;;;5074577;28;19927;-77
2023/11/02 01:26:01;;;;;;;;;;;14.20;99.90;;;;;;5063159;28;19921;-79
2023/11/02 01:28:51;;;;;;;;;;;14.20;99.90;;;;;;5047537;28;19966;-77
2023/11/02 01:31:20;;;;;;;;;;;14.30;99.90;;;;;;5059876;28;20343;-78
2023/11/02 01:33:54;;;;;;;;;;;14.60;99.90;;;;;;5062332;28;19943;-76
2023/11/02 01:36:29;;;;;;;;;;;14.70;99.90;;;;;;5062732;28;19994;-76
2023/11/02 01:39:01;;;;;;;;;;;14.70;99.90;;;;;;5060113;28;20018;-74
2023/11/02 01:41:43;;;;;;;;;;;15.00;99.90;;;;;;5062694;28;19931;-75
2023/11/02 01:44:22;;;;;;;;;;;15.00;99.90;;;;;;5074343;28;20353;-74
2023/11/02 01:46:55;;;;;;;;;;;15.10;99.90;;;;;;5073686;28;19928;-74
2023/11/02 01:49:41;;;;;;;;;;;15.10;99.90;;;;;;5061739;28;19926;-74
2023/11/02 01:52:08;;;;;;;;;;;15.10;99.90;;;;;;5079237;28;19920;-75
2023/11/02 01:54:47;;;;;;;;;;;15.20;99.90;;;;;;5059919;28;19920;-75
2023/11/02 01:57:33;;;;;;;;;;;15.20;99.90;;;;;;5058403;28;19920;-75
2023/11/02 02:00:21;;;;;;;;;;;15.20;99.90;;;;;;5061006;28;19916;-75
2023/11/02 02:02:57;;;;;;;;;;;15.20;99.90;;;;;;5046897;28;19920;-76
2023/11/02 02:05:48;;;;;;;;;;;15.10;99.90;;;;;;5061765;28;19924;-78
2023/11/02 02:08:38;;;;;;;;;;;15.00;99.90;;;;;;5049472;28;19920;-78
2023/11/02 02:11:05;;;;;;;;;;;14.90;99.90;;;;;;5031396;28;20424;-78
2023/11/02 02:13:56;;;;;;;;;;;14.80;99.90;;;;;;5063920;28;19926;-78
2023/11/02 02:16:34;;;;;;;;;;;14.80;99.90;;;;;;5054928;28;19928;-79
2023/11/02 02:19:21;;;;;;;;;;;14.70;99.90;;;;;;5077661;28;20177;-77
2023/11/02 02:21:56;;;;;;;;;;;14.70;99.90;;;;;;5058509;28;19931;-77
2023/11/02 02:24:26;;;;;;;;;;;14.80;99.90;;;;;;5070528;28;19920;-76
2023/11/02 02:27:14;;;;;;;;;;;14.70;99.90;;;;;;5078924;28;19952;-76
2023/11/02 02:30:01;;;;;;;;;;;14.80;99.90;;;;;;5077829;28;19934;-77
2023/11/02 02:32:44;;;;;;;;;;;15.00;99.90;;;;;;5072597;28;19920;-76
2023/11/02 02:35:23;;;;;;;;;;;15.00;99.90;;;;;;5067320;28;20435;-75
2023/11/02 02:37:54;;;;;;;;;;;15.00;99.90;;;;;;5091561;28;19927;-78
2023/11/02 02:40:31;;;;;;;;;;;14.70;99.90;;;;;;5057270;28;19920;-76
2023/11/02 02:43:01;;;;;;;;;;;14.70;99.90;;;;;;5078513;28;20011;-77
2023/11/02 02:45:29;;;;;;;;;;;14.50;99.90;;;;;;5071598;28;20019;-76
2023/11/02 02:47:58;;;;;;;;;;;14.60;99.90;;;;;;5076477;28;20302;-77
2023/11/02 02:50:29;;;;;;;;;;;14.70;99.90;;;;;;5047200;28;19920;-77
2023/11/02 02:52:59;;;;;;;;;;;14.90;99.90;;;;;;5078509;28;19989;-76
2023/11/02 02:55:28;;;;;;;;;;;15.00;99.90;;;;;;5079912;28;20030;-78
2023/11/02 02:57:58;;;;;;;;;;;15.00;99.90;;;;;;5061474;28;20398;-77
2023/11/02 03:00:27;;;;;;;;;;;14.90;99.90;;;;;;5081865;28;19924;-76
2023/11/02 03:02:57;;;;;;;;;;;14.90;99.90;;;;;;5083487;28;19920;-78
2023/11/02 03:05:27;;;;;;;;;;;14.90;99.90;;;;;;5083806;28;19956;-77
2023/11/02 03:07:59;;;;;;;;;;;14.90;99.90;;;;;;5081004;28;19920;-77
2023/11/02 03:10:28;;;;;;;;;;;15.00;99.90;;;;;;5080467;28;20390;-79
2023/11/02 03:12:59;;;;;;;;;;;14.90;99.90;;;;;;5082679;28;19920;-78
2023/11/02 03:15:29;;;;;;;;;;;14.90;99.90;;;;;;5061522;28;19945;-78
2023/11/02 03:18:02;;;;;;;;;;;14.90;99.90;;;;;;5075297;28;19927;-77
2023/11/02 03:20:30;;;;;;;;;;;14.80;99.90;;;;;;5063817;28;19921;-77
2023/11/02 03:23:03;;;;;;;;;;;14.80;99.90;;;;;;5061764;28;20389;-79
2023/11/02 03:25:42;;;;;;;;;;;14.80;99.90;;;;;;5061733;28;19920;-78
2023/11/02 03:28:17;;;;;;;;;;;14.60;99.90;;;;;;5084228;28;20371;-77
2023/11/02 03:31:03;;;;;;;;;;;14.50;99.90;;;;;;5088394;28;19920;-79
2023/11/02 03:33:45;;;;;;;;;;;14.50;99.90;;;;;;5077637;28;19921;-78
2023/11/02 03:36:26;;;;;;;;;;;14.40;99.90;;;;;;5057436;28;19927;-77
2023/11/02 03:39:25;;;;;;;;;;;14.50;99.90;;;;;;5076866;28;19931;-77
2023/11/02 03:41:58;;;;;;;;;;;14.50;99.90;;;;;;5053063;28;20350;-79
2023/11/02 03:44:28;;;;;;;;;;;14.60;99.90;;;;;;5064896;28;20282;-77
2023/11/02 03:47:08;;;;;;;;;;;14.60;99.90;;;;;;5058671;28;19927;-77
2023/11/02 03:49:45;;;;;;;;;;;14.40;99.90;;;;;;5048075;28;19970;-78
2023/11/02 03:52:20;;;;;;;;;;;14.40;99.90;;;;;;5044162;28;20387;-78
2023/11/02 03:55:05;;;;;;;;;;;14.50;99.90;;;;;;5082995;28;20334;-76
2023/11/02 03:57:43;;;;;;;;;;;14.40;99.90;;;;;;5074329;28;19973;-76
2023/11/02 04:00:10;;;;;;;;;;;14.30;99.90;;;;;;5046501;28;19920;-77
2023/11/02 04:02:47;;;;;;;;;;;14.30;99.90;;;;;;5080233;28;19921;-77
2023/11/02 04:05:21;;;;;;;;;;;14.30;99.90;;;;;;5059544;28;19920;-76
2023/11/02 04:07:55;;;;;;;;;;;14.30;99.90;;;;;;5079652;28;19920;-77
2023/11/02 04:10:23;;;;;;;;;;;14.30;99.90;;;;;;5060620;28;19920;-75
2023/11/02 04:13:06;;;;;;;;;;;14.40;99.90;;;;;;5080549;28;20298;-77
2023/11/02 04:15:33;;;;;;;;;;;14.40;99.90;;;;;;5062891;28;20394;-78
2023/11/02 04:18:00;;;;;;;;;;;14.40;99.90;;;;;;5079553;28;19944;-77
2023/11/02 04:20:27;;;;;;;;;;;14.40;99.90;;;;;;5081495;28;19986;-76
2023/11/02 04:22:54;;;;;;;;;;;14.40;99.90;;;;;;5064274;28;19920;-75
2023/11/02 04:25:22;;;;;;;;;;;14.40;99.90;;;;;;5078486;28;19920;-77
2023/11/02 04:27:51;;;;;;;;;;;14.50;99.90;;;;;;5064108;28;20002;-77
2023/11/02 04:30:18;;;;;;;;;;;14.30;99.90;;;;;;5083618;28;20467;-75
2023/11/02 04:32:45;;;;;;;;;;;14.30;99.90;;;;;;5093208;28;20014;-77
2023/11/02 04:35:12;;;;;;;;;;;14.40;99.90;;;;;;5076810;28;19919;-75
2023/11/02 04:38:07;;;;;;;;;;;14.30;99.90;;;;;;5062531;28;20329;-77
2023/11/02 04:40:34;;;;;;;;;;;14.20;99.90;;;;;;5058544;28;20292;-77
2023/11/02 04:43:02;;;;;;;;;;;14.20;99.90;;;;;;5089774;28;19921;-77
2023/11/02 04:45:29;;;;;;;;;;;14.20;99.90;;;;;;5058730;28;19920;-77
2023/11/02 04:47:57;;;;;;;;;;;14.20;99.90;;;;;;5075772;28;19924;-77
2023/11/02 04:50:25;;;;;;;;;;;14.10;99.90;;;;;;5065773;28;20006;-78
2023/11/02 04:52:52;;;;;;;;;;;14.10;99.90;;;;;;5079961;28;19920;-77
2023/11/02 04:55:20;;;;;;;;;;;14.00;99.90;;;;;;5076074;28;19926;-76
2023/11/02 04:57:47;;;;;;;;;;;14.00;99.90;;;;;;5064091;28;19920;-75
2023/11/02 05:00:14;;;;;;;;;;;14.10;99.90;;;;;;5059291;28;20038;-75
2023/11/02 05:03:00;;;;;;;;;;;14.00;99.90;;;;;;5079740;28;19926;-75
2023/11/02 05:05:28;;;;;;;;;;;14.10;99.90;;;;;;5074479;28;19924;-76
2023/11/02 05:07:55;;;;;;;;;;;14.00;99.90;;;;;;5046557;28;19920;-76
2023/11/02 05:10:22;;;;;;;;;;;13.90;99.90;;;;;;5061243;28;20381;-77
2023/11/02 05:12:50;;;;;;;;;;;13.80;99.90;;;;;;5059374;28;19923;-77
2023/11/02 05:15:17;;;;;;;;;;;13.90;99.90;;;;;;5063290;28;19956;-79
2023/11/02 05:17:44;;;;;;;;;;;13.90;99.90;;;;;;5059474;28;19928;-79
2023/11/02 05:20:12;;;;;;;;;;;13.90;99.90;;;;;;5091879;28;20354;-76
2023/11/02 05:22:39;;;;;;;;;;;14.00;99.90;;;;;;5079418;28;19966;-76
2023/11/02 05:25:07;;;;;;;;;;;14.00;99.90;;;;;;5042651;28;19920;-78
2023/11/02 05:27:35;;;;;;;;;;;14.00;99.90;;;;;;5058696;28;20384;-76
2023/11/02 05:30:02;;;;;;;;;;;14.00;99.90;;;;;;5062360;28;20373;-76
2023/11/02 05:32:29;;;;;;;;;;;14.00;99.90;;;;;;5052923;28;19928;-75
2023/11/02 05:34:59;;;;;;;;;;;14.00;99.90;;;;;;5074656;28;19946;-77
2023/11/02 05:37:27;;;;;;;;;;;13.90;99.90;;;;;;5045009;28;20044;-78
2023/11/02 05:39:55;;;;;;;;;;;14.00;99.90;;;;;;5055303;28;20025;-77
2023/11/02 05:42:23;;;;;;;;;;;13.80;99.90;;;;;;5063055;28;20330;-75
2023/11/02 05:44:50;;;;;;;;;;;13.80;99.90;;;;;;5055193;28;20399;-76
2023/11/02 05:47:36;;;;;;;;;;;13.90;99.90;;;;;;5062307;28;20386;-77
2023/11/02 05:50:03;;;;;;;;;;;13.90;99.90;;;;;;5080598;28;19925;-76
2023/11/02 05:52:30;;;;;;;;;;;13.90;99.90;;;;;;5076040;28;20346;-77
2023/11/02 05:54:57;;;;;;;;;;;13.90;99.90;;;;;;5078583;28;19924;-73
2023/11/02 05:57:25;;;;;;;;;;;14.00;99.90;;;;;;5057493;28;19926;-74
2023/11/02 05:59:52;;;;;;;;;;;14.10;99.90;;;;;;5073011;28;19927;-73
2023/11/02 06:02:19;;;;;;;;;;;14.20;99.90;;;;;;5058354;28;20367;-76
2023/11/02 06:04:46;;;;;;;;;;;14.40;99.90;;;;;;5079416;28;19920;-75
2023/11/02 06:07:13;;;;;;;;;;;14.50;99.90;;;;;;5059746;28;19927;-74
2023/11/02 06:09:42;;;;;;;;;;;14.50;99.90;;;;;;5096460;28;19924;-78
2023/11/02 06:12:09;;;;;;;;;;;14.50;99.90;;;;;;5063064;28;19973;-78
2023/11/02 06:14:37;;;;;;;;;;;14.40;99.90;;;;;;5091306;28;20292;-78
2023/11/02 06:17:04;;;;;;;;;;;14.50;99.90;;;;;;5076565;28;20711;-75
2023/11/02 06:19:31;;;;;;;;;;;14.50;99.90;;;;;;5058905;28;20401;-76
2023/11/02 06:21:58;;;;;;;;;;;14.50;99.90;;;;;;5076087;28;19934;-76
2023/11/02 06:24:25;;;;;;;;;;;14.50;99.90;;;;;;5072850;28;20494;-78
2023/11/02 06:26:53;;;;;;;;;;;14.50;99.90;;;;;;5061223;28;19925;-78
2023/11/02 06:29:20;;;;;;;;;;;14.30;99.90;;;;;;5058747;28;19939;-79
2023/11/02 06:31:49;;;;;;;;;;;14.40;99.90;;;;;;5045089;28;20413;-77
2023/11/02 06:34:18;;;;;;;;;;;14.40;99.90;;;;;;5060057;28;20346;-79
2023/11/02 06:36:45;;;;;;;;;;;14.60;99.90;;;;;;5063994;28;19966;-77
2023/11/02 06:39:16;;;;;;;;;;;14.80;99.90;;;;;;5081634;28;19985;-78
2023/11/02 06:41:44;;;;;;;;;;;14.80;99.90;;;;;;5081839;28;20521;-77
2023/11/02 06:44:11;;;;;;;;;;;14.70;99.90;;;;;;5079795;28;19920;-78
2023/11/02 06:46:38;;;;;;;;;;;14.70;99.90;;;;;;5059280;28;19928;-78
2023/11/02 06:49:05;;;;;;;;;;;14.70;99.90;;;;;;5069607;28;19931;-76
2023/11/02 06:51:32;;;;;;;;;;;14.70;99.90;;;;;;5053993;28;19935;-72
2023/11/02 06:54:00;;;;;;;;;;;14.80;99.90;;;;;;5071384;28;20023;-75
2023/11/02 06:56:28;;;;;;;;;;;15.00;99.90;;;;;;5054725;28;19928;-78
2023/11/02 06:58:57;;;;;;;;;;;15.00;99.90;;;;;;5051232;28;19924;-75
2023/11/02 07:01:24;;;;;;;;;;;15.10;99.90;;;;;;5081982;28;19920;-79
2023/11/02 07:03:51;;;;;;;;;;;15.00;99.90;;;;;;5060446;28;20242;-79
2023/11/02 07:06:19;;;;;;;;;;;15.10;99.90;;;;;;5064263;28;19973;-81
2023/11/02 07:08:46;;;;;;;;;;;15.10;99.90;;;;;;5078324;28;19935;-80
2023/11/02 07:11:14;;;;;;;;;;;14.90;99.90;;;;;;5057374;28;19990;-79
2023/11/02 07:13:41;;;;;;;;;;;15.00;99.90;;;;;;5089786;28;20459;-80
2023/11/02 07:16:10;;;;;;;;;;;15.10;99.90;;;;;;5058899;28;19924;-79
2023/11/02 07:18:37;;;;;;;;;;;15.10;99.90;;;;;;5077364;28;19924;-79
2023/11/02 07:21:04;;;;;;;;;;;15.10;99.90;;;;;;5062562;28;20051;-80
2023/11/02 07:23:31;;;;;;;;;;;15.00;99.90;;;;;;5092022;28;20252;-80
2023/11/02 07:25:59;;;;;;;;;;;15.00;99.90;;;;;;5056993;28;19924;-80
2023/11/02 07:28:26;;;;;;;;;;;15.00;99.90;;;;;;5059715;28;19920;-79
2023/11/02 07:30:53;;;;;;;;;;;15.10;99.90;;;;;;5073407;28;20248;-78
2023/11/02 07:33:20;;;;;;;;;;;15.10;99.90;;;;;;5077969;28;19924;-80
2023/11/02 07:35:47;;;;;;;;;;;15.20;99.90;;;;;;5073041;28;20297;-79
2023/11/02 07:38:16;;;;;;;;;;;15.10;99.90;;;;;;5078842;28;19935;-78
2023/11/02 07:40:44;;;;;;;;;;;15.00;99.90;;;;;;5061578;28;20023;-79
2023/11/02 07:43:11;;;;;;;;;;;15.00;99.90;;;;;;5078037;28;19923;-79
2023/11/02 07:45:41;;;;;;;;;;;15.00;99.90;;;;;;5061460;28;19924;-80
2023/11/02 07:48:08;;;;;;;;;;;15.10;99.90;;;;;;5060864;28;19921;-80
2023/11/02 07:50:35;;;;;;;;;;;14.90;99.90;;;;;;5092083;28;19920;-81
2023/11/02 07:53:03;;;;;;;;;;;15.10;99.90;;;;;;5075991;28;19973;-78
2023/11/02 07:55:30;;;;;;;;;;;15.20;99.90;;;;;;5077714;28;20268;-83
2023/11/02 07:57:59;;;;;;;;;;;15.10;99.90;;;;;;5079953;28;20381;-81
2023/11/02 08:00:26;;;;;;;;;;;15.20;99.90;;;;;;5056442;28;19963;-80
2023/11/02 08:02:54;;;;;;;;;;;15.30;99.90;;;;;;5070476;28;19966;-81
2023/11/02 08:05:23;;;;;;;;;;;15.50;99.90;;;;;;5077545;28;19962;-81
2023/11/02 08:07:50;;;;;;;;;;;15.40;99.90;;;;;;5079422;28;19920;-80
2023/11/02 08:10:17;;;;;;;;;;;15.50;99.90;;;;;;5076869;28;19920;-78
2023/11/02 08:12:44;;;;;;;;;;;15.40;99.90;;;;;;5074747;28;19928;-80
2023/11/02 08:15:11;;;;;;;;;;;15.50;99.90;;;;;;5080745;28;19965;-78
2023/11/02 08:17:42;;;;;;;;;;;15.40;99.90;;;;;;5053629;28;20018;-80
2023/11/02 08:20:10;;;;;;;;;;;15.30;99.90;;;;;;5061949;28;20267;-77
2023/11/02 08:22:37;;;;;;;;;;;15.30;99.90;;;;;;5040846;28;20283;-80
2023/11/02 08:25:05;;;;;;;;;;;15.20;99.90;;;;;;5074606;28;20475;-79
2023/11/02 08:27:33;;;;;;;;;;;14.90;99.90;;;;;;5059584;28;20347;-80
2023/11/02 08:30:00;;;;;;;;;;;15.10;99.90;;;;;;5054028;28;20405;-78
2023/11/02 08:32:28;;;;;;;;;;;15.30;99.90;;;;;;5068371;28;19970;-79
2023/11/02 08:34:55;;;;;;;;;;;15.40;99.90;;;;;;5078087;28;19959;-78
2023/11/02 08:37:23;;;;;;;;;;;15.60;99.90;;;;;;5062439;28;20613;-77
2023/11/02 08:39:50;;;;;;;;;;;15.70;99.90;;;;;;5078601;28;19925;-79
2023/11/02 08:42:17;;;;;;;;;;;15.80;99.90;;;;;;5076188;28;19920;-78
2023/11/02 08:44:44;;;;;;;;;;;15.70;99.90;;;;;;5075078;28;19920;-80
2023/11/02 08:47:12;;;;;;;;;;;15.80;99.90;;;;;;5061844;28;19936;-79
2023/11/02 08:49:40;;;;;;;;;;;16.10;99.90;;;;;;5093714;28;19924;-78
2023/11/02 08:52:07;;;;;;;;;;;16.60;99.90;;;;;;5059710;28;20007;-81
2023/11/02 08:54:36;;;;;;;;;;;16.80;99.90;;;;;;5059348;28;20396;-79
2023/11/02 08:57:03;;;;;;;;;;;17.00;99.90;;;;;;5065155;28;20348;-77
2023/11/02 08:59:31;;;;;;;;;;;17.00;99.90;;;;;;5059182;28;19974;-80
2023/11/02 09:01:58;;;;;;;;;;;16.70;99.90;;;;;;5061032;28;20355;-79
2023/11/02 09:04:26;;;;;;;;;;;16.40;99.90;;;;;;5056152;28;19920;-78
2023/11/02 09:06:53;;;;;;;;;;;15.90;99.90;;;;;;5076751;28;20456;-80
2023/11/02 09:09:21;;;;;;;;;;;15.90;99.90;;;;;;5072025;28;19940;-79
2023/11/02 09:11:48;;;;;;;;;;;16.80;99.90;;;;;;5042721;28;20337;-78
2023/11/02 09:14:15;;;;;;;;;;;17.50;99.90;;;;;;5034540;28;19920;-80
2023/11/02 09:16:42;;;;;;;;;;;17.40;99.90;;;;;;5063550;28;19928;-79
2023/11/02 09:19:09;;;;;;;;;;;17.10;99.90;;;;;;5075026;28;19993;-78
2023/11/02 09:21:37;;;;;;;;;;;17.80;99.90;;;;;;5077386;28;19974;-76
2023/11/02 09:24:05;;;;;;;;;;;18.30;99.90;;;;;;5057898;28;19951;-76
2023/11/02 09:26:34;;;;;;;;;;;18.80;99.90;;;;;;5069535;28;19928;-75
2023/11/02 09:29:02;;;;;;;;;;;18.90;99.90;;;;;;5069127;28;20080;-77
2023/11/02 09:31:30;;;;;;;;;;;19.10;99.90;;;;;;5063153;28;19935;-78
2023/11/02 09:33:57;;;;;;;;;;;19.40;99.90;;;;;;5060547;28;19959;-76
2023/11/02 09:36:29;;;;;;;;;;;19.70;99.90;;;;;;5073371;28;19931;-78
2023/11/02 09:39:00;;;;;;;;;;;19.70;99.90;;;;;;5066917;28;19953;-77
2023/11/02 09:41:27;;;;;;;;;;;19.40;99.90;;;;;;5070899;28;20294;-81
2023/11/02 09:43:55;;;;;;;;;;;19.50;99.90;;;;;;5058089;28;21272;-79
2023/11/02 09:46:23;;;;;;;;;;;19.60;99.90;;;;;;5074048;28;19927;-78
2023/11/02 09:48:50;;;;;;;;;;;19.40;99.90;;;;;;5080209;28;21128;-75
2023/11/02 09:51:18;;;;;;;;;;;19.60;99.90;;;;;;5081267;28;20321;-81
2023/11/02 09:53:46;;;;;;;;;;;19.60;99.90;;;;;;5071814;28;19975;-78
2023/11/02 09:56:14;;;;;;;;;;;19.50;99.90;;;;;;5077434;28;19973;-78
2023/11/02 09:58:41;;;;;;;;;;;19.80;99.90;;;;;;5061067;28;19927;-80
2023/11/02 10:01:11;;;;;;;;;;;19.90;99.90;;;;;;5090458;28;19930;-76
2023/11/02 10:03:42;;;;;;;;;;;19.90;99.90;;;;;;5073794;28;19920;-77
2023/11/02 10:06:09;;;;;;;;;;;19.90;99.90;;;;;;5074289;28;20291;-74
2023/11/02 10:08:36;;;;;;;;;;;20.10;99.90;;;;;;5080809;28;19930;-77
2023/11/02 10:11:14;;;;;;;;;;;20.20;99.90;;;;;;5080934;28;19919;-79
2023/11/02 10:13:47;;;;;;;;;;;20.20;99.90;;;;;;5080218;28;20011;-78
2023/11/02 10:16:21;;;;;;;;;;;20.30;99.90;;;;;;5080908;28;19926;-79
2023/11/02 10:18:49;;;;;;;;;;;20.40;99.90;;;;;;5077214;28;19924;-77
2023/11/02 10:21:16;;;;;;;;;;;20.60;99.90;;;;;;5062728;28;19928;-80
2023/11/02 10:23:48;;;;;;;;;;;20.80;99.90;;;;;;5081701;28;19965;-80
2023/11/02 10:26:18;;;;;;;;;;;20.80;99.90;;;;;;5059416;28;19920;-78
2023/11/02 10:28:46;;;;;;;;;;;20.60;99.90;;;;;;5081432;28;19956;-82
2023/11/02 10:31:18;;;;;;;;;;;20.50;99.90;;;;;;5078424;28;19947;-78
2023/11/02 10:33:49;;;;;;;;;;;20.60;99.90;;;;;;5083597;28;19939;-79
2023/11/02 10:36:17;;;;;;;;;;;20.80;99.90;;;;;;5085161;28;20248;-78
2023/11/02 10:38:45;;;;;;;;;;;21.20;99.90;;;;;;5081986;28;20370;-78
2023/11/02 10:41:18;;;;;;;;;;;21.50;99.90;;;;;;5080961;28;20003;-80
2023/11/02 10:43:46;;;;;;;;;;;21.10;99.90;;;;;;5078617;28;19920;-79
2023/11/02 10:46:15;;;;;;;;;;;21.00;99.90;;;;;;5060349;28;19921;-80
2023/11/02 10:48:43;;;;;;;;;;;21.70;99.70;;;;;;5074055;28;19932;-81
2023/11/02 10:51:16;;;;;;;;;;;22.30;99.20;;;;;;5083619;28;19927;-81
2023/11/02 10:53:43;;;;;;;;;;;22.70;98.10;;;;;;5080089;28;19924;-83
2023/11/02 10:56:18;;;;;;;;;;;22.00;97.70;;;;;;5078678;28;19974;-79
2023/11/02 10:58:48;;;;;;;;;;;21.40;97.70;;;;;;5078818;28;19935;-85
2023/11/02 11:01:17;;;;;;;;;;;21.80;97.40;;;;;;5078337;28;20442;-81
2023/11/02 11:03:46;;;;;;;;;;;22.10;97.00;;;;;;5083575;28;20286;-84
2023/11/02 11:06:14;;;;;;;;;;;22.70;96.60;;;;;;5083843;28;20263;-80
2023/11/02 11:08:43;;;;;;;;;;;22.80;95.80;;;;;;5083464;28;19920;-78
2023/11/02 11:11:11;;;;;;;;;;;23.00;94.50;;;;;;5083746;28;19940;-79
2023/11/02 11:13:39;;;;;;;;;;;22.40;95.30;;;;;;5081839;28;19956;-86
2023/11/02 11:16:07;;;;;;;;;;;21.40;96.70;;;;;;5059606;28;19926;-80
2023/11/02 11:18:38;;;;;;;;;;;21.30;96.90;;;;;;5081408;28;20390;-85
2023/11/02 11:21:07;;;;;;;;;;;22.40;95.40;;;;;;5077031;28;20008;-80
2023/11/02 11:23:54;;;;;;;;;;;22.40;94.60;;;;;;5072715;28;20019;-82
2023/11/02 11:26:23;;;;;;;;;;;22.90;93.90;;;;;;5086108;28;19973;-82
2023/11/02 11:28:52;;;;;;;;;;;23.20;93.50;;;;;;5080910;28;20015;-83
2023/11/02 11:31:38;;;;;;;;;;;23.50;93.30;;;;;;5081869;28;20337;-81
2023/11/02 11:34:06;;;;;;;;;;;25.10;91.30;;;;;;5060721;28;19920;-84
2023/11/02 11:36:33;;;;;;;;;;;28.40;83.40;;;;;;5078903;28;19920;-81
2023/11/02 11:39:20;;;;;;;;;;;29.10;76.30;;;;;;5065461;28;20268;-80
2023/11/02 11:41:47;;;;;;;;;;;29.70;73.60;;;;;;5059490;28;19923;-82
2023/11/02 11:44:22;;;;;;;;;;;30.40;66.30;;;;;;5080952;28;19927;-82
2023/11/02 11:46:53;;;;;;;;;;;31.00;65.10;;;;;;5060451;28;20011;-83
2023/11/02 11:49:36;;;;;;;;;;;31.00;63.30;;;;;;5098098;28;19921;-81
2023/11/02 11:52:05;;;;;;;;;;;30.80;64.50;;;;;;5076832;28;19927;-80
2023/11/02 11:54:32;;;;;;;;;;;32.10;62.40;;;;;;5075966;28;20268;-81
2023/11/02 11:56:59;;;;;;;;;;;31.60;59.90;;;;;;5082209;28;19920;-80
2023/11/02 11:59:45;;;;;;;;;;;31.10;58.60;;;;;;5079047;28;19930;-80
2023/11/02 12:02:31;;;;;;;;;;;30.90;58.70;;;;;;5096534;28;19924;-84
2023/11/02 12:05:00;;;;;;;;;;;27.50;62.30;;;;;;5081438;28;20330;-83
2023/11/02 12:07:27;;;;;;;;;;;26.20;67.30;;;;;;5082126;28;19928;-82
2023/11/02 12:10:02;;;;;;;;;;;25.00;68.80;;;;;;5081286;28;19964;-82
2023/11/02 12:12:35;;;;;;;;;;;23.90;72.10;;;;;;5079966;28;19920;-83
2023/11/02 12:15:18;;;;;;;;;;;23.70;73.80;;;;;;5076236;28;20023;-83
2023/11/02 12:17:52;;;;;;;;;;;24.30;71.90;;;;;;5076862;28;19920;-83
2023/11/02 12:20:34;;;;;;;;;;;24.70;70.60;;;;;;5079184;28;20105;-81
2023/11/02 12:23:01;;;;;;;;;;;25.20;70.30;;;;;;5080459;28;20366;-83
2023/11/02 12:25:30;;;;;;;;;;;25.50;69.60;;;;;;5081827;28;19920;-83
2023/11/02 12:27:57;;;;;;;;;;;24.80;69.20;;;;;;5077569;28;20439;-79
2023/11/02 12:30:24;;;;;;;;;;;25.00;70.70;;;;;;5060480;28;19963;-80
2023/11/02 12:32:52;;;;;;;;;;;26.60;67.60;;;;;;5096890;28;19973;-81
2023/11/02 12:35:21;;;;;;;;;;;28.20;65.50;;;;;;5079806;28;19924;-81
2023/11/02 12:38:01;;;;;;;;;;;31.40;60.10;;;;;;5062146;28;20022;-83
2023/11/02 12:41:02;;;;;;;;;;;32.10;58.30;;;;;;5079126;28;20025;-83
2023/11/02 12:43:30;;;;;;;;;;;32.40;57.40;;;;;;5058063;28;19920;-82
2023/11/02 12:46:00;;;;;;;;;;;32.90;54.40;;;;;;5081078;28;20101;-83
2023/11/02 12:48:28;;;;;;;;;;;33.80;53.20;;;;;;5081022;28;20016;-84
2023/11/02 12:50:56;;;;;;;;;;;34.70;52.90;;;;;;5082709;28;19924;-83
2023/11/02 12:53:24;;;;;;;;;;;32.40;52.90;;;;;;5066364;28;20001;-82
2023/11/02 12:55:51;;;;;;;;;;;32.10;54.00;;;;;;5078160;28;19983;-83
2023/11/02 12:58:19;;;;;;;;;;;32.60;52.50;;;;;;5080741;28;19920;-83
2023/11/02 13:00:57;;;;;;;;;;;30.50;56.90;;;;;;5081177;28;19924;-83
2023/11/02 13:03:27;;;;;;;;;;;28.80;59.50;;;;;;5064146;28;20362;-84
2023/11/02 13:05:55;;;;;;;;;;;32.00;55.20;;;;;;5080662;28;19973;-84
2023/11/02 13:08:22;;;;;;;;;;;29.50;56.90;;;;;;5078818;28;19924;-80
2023/11/02 13:10:49;;;;;;;;;;;32.90;54.50;;;;;;5081659;28;19921;-82
2023/11/02 13:13:17;;;;;;;;;;;34.70;51.90;;;;;;5081908;28;19948;-81
2023/11/02 13:15:45;;;;;;;;;;;32.50;52.90;;;;;;5079268;28;19927;-82
2023/11/02 13:18:15;;;;;;;;;;;32.60;53.10;;;;;;5079794;28;20329;-81
2023/11/02 13:20:48;;;;;;;;;;;33.50;51.20;;;;;;5076749;28;20283;-83
2023/11/02 13:23:15;;;;;;;;;;;34.10;51.00;;;;;;5076558;28;19927;-81
2023/11/02 13:25:42;;;;;;;;;;;35.20;50.20;;;;;;5078683;28;20015;-83
2023/11/02 13:28:11;;;;;;;;;;;35.30;49.30;;;;;;5072442;28;19931;-84
2023/11/02 13:30:41;;;;;;;;;;;35.60;48.80;;;;;;5073352;28;19920;-82
2023/11/02 13:33:14;;;;;;;;;;;35.30;49.40;;;;;;5080713;28;19920;-82
2023/11/02 13:35:44;;;;;;;;;;;36.10;48.10;;;;;;5073026;28;20469;-83
2023/11/02 13:38:11;;;;;;;;;;;35.30;49.30;;;;;;5078253;28;19970;-81
2023/11/02 13:40:41;;;;;;;;;;;34.30;50.50;;;;;;5057151;28;20357;-80
2023/11/02 13:43:09;;;;;;;;;;;34.40;49.50;;;;;;5077146;28;20238;-82
2023/11/02 13:45:41;;;;;;;;;;;34.20;49.00;;;;;;5076569;28;19920;-80
2023/11/02 13:48:09;;;;;;;;;;;34.50;49.80;;;;;;5072706;28;20334;-80
2023/11/02 13:50:36;;;;;;;;;;;35.20;48.90;;;;;;5077526;28;19924;-83
2023/11/02 13:53:07;;;;;;;;;;;35.00;48.40;;;;;;5052191;28;19921;-81
2023/11/02 13:55:35;;;;;;;;;;;35.00;48.20;;;;;;5057941;28;19971;-81
2023/11/02 13:58:02;;;;;;;;;;;33.90;50.50;;;;;;5077318;28;19920;-81
2023/11/02 14:00:29;;;;;;;;;;;33.10;51.90;;;;;;5077717;28;19994;-80
2023/11/02 14:03:18;;;;;;;;;;;32.00;52.90;;;;;;5076138;28;19940;-79
2023/11/02 14:05:47;;;;;;;;;;;30.80;51.30;;;;;;5080157;28;20010;-81
2023/11/02 14:08:14;;;;;;;;;;;28.80;54.80;;;;;;5074951;28;20006;-80
2023/11/02 14:10:42;;;;;;;;;;;28.40;56.00;;;;;;5079361;28;19920;-81
2023/11/02 14:13:12;;;;;;;;;;;29.50;55.30;;;;;;5076706;28;20011;-81
2023/11/02 14:15:43;;;;;;;;;;;32.20;52.90;;;;;;5076453;28;19931;-83
2023/11/02 14:18:10;;;;;;;;;;;32.70;52.30;;;;;;5079331;28;19931;-82
2023/11/02 14:20:41;;;;;;;;;;;32.50;51.50;;;;;;5074241;28;20047;-82
2023/11/02 14:23:11;;;;;;;;;;;32.70;50.50;;;;;;5077290;28;19924;-82
2023/11/02 14:25:42;;;;;;;;;;;33.30;50.20;;;;;;5079698;28;20393;-82
2023/11/02 14:28:09;;;;;;;;;;;33.10;51.80;;;;;;5059570;28;19963;-79
2023/11/02 14:30:38;;;;;;;;;;;32.30;50.70;;;;;;5070724;28;19920;-82
2023/11/02 14:33:05;;;;;;;;;;;32.20;50.80;;;;;;5080523;28;20271;-83
2023/11/02 14:35:32;;;;;;;;;;;32.70;50.30;;;;;;5077057;28;19920;-81